Time;durP1;ratioP1;P1;durP2;ratioP2;P2;SDS_P1;SDS_P2;PMS_P1;PMS_P2;Temp;Humidity;BMP_temperature;BMP_pressure;BME280_temperature;BME280_humidity;BME280_pressure;Samples;Min_cycle;Max_cycle;Signal;HPM_P1;HPM_P2
2022/05/14 00:01:42;;;;;;;2.17;1.40;;;14.70;82.60;;;;;;10350453;28;20236;-69
2022/05/14 00:06:43;;;;;;;4.27;1.80;;;14.60;83.40;;;;;;10344662;28;20228;-70
2022/05/14 00:17:04;;;;;;;4.20;1.47;;;14.50;84.70;;;;;;10347819;28;20311;-70
2022/05/14 00:22:05;;;;;;;1.70;1.30;;;14.40;86.00;;;;;;10359824;28;20323;-70
2022/05/14 00:27:05;;;;;;;3.13;1.80;;;14.30;87.30;;;;;;10352819;28;20680;-70
2022/05/14 00:32:07;;;;;;;3.83;1.77;;;14.20;88.80;;;;;;10357422;28;20216;-70
2022/05/14 00:37:10;;;;;;;2.20;1.40;;;14.10;90.10;;;;;;10355055;28;20232;-70
2022/05/14 00:42:14;;;;;;;3.10;1.50;;;14.10;90.60;;;;;;10348405;28;20689;-70
2022/05/14 00:47:16;;;;;;;3.90;1.33;;;14.10;90.80;;;;;;10358431;28;20299;-70
2022/05/14 00:52:19;;;;;;;2.57;1.40;;;14.10;91.30;;;;;;10356745;28;20301;-70
2022/05/14 00:57:25;;;;;;;4.30;1.83;;;14.10;91.70;;;;;;10359848;28;20225;-70
2022/05/14 01:02:25;;;;;;;1.97;1.50;;;14.10;92.20;;;;;;10354701;28;20217;-70
2022/05/14 01:07:30;;;;;;;1.97;1.23;;;14.00;92.90;;;;;;10355930;28;20317;-70
2022/05/14 01:12:33;;;;;;;4.50;1.70;;;14.00;93.60;;;;;;10360250;28;20224;-71
2022/05/14 01:17:33;;;;;;;3.57;1.53;;;13.80;94.50;;;;;;10352905;28;20233;-70
2022/05/14 01:22:57;;;;;;;4.63;1.57;;;13.80;95.70;;;;;;10344046;28;20639;-70
2022/05/14 01:27:59;;;;;;;2.73;1.33;;;13.70;97.00;;;;;;10360272;28;20291;-71
2022/05/14 01:33:06;;;;;;;3.63;1.00;;;13.60;98.10;;;;;;10354271;28;20297;-70
2022/05/14 01:38:07;;;;;;;2.47;1.50;;;13.50;99.20;;;;;;10355465;28;20257;-70
2022/05/14 01:43:07;;;;;;;3.97;1.43;;;13.50;99.90;;;;;;10342472;28;20782;-71
2022/05/14 01:48:08;;;;;;;1.87;1.20;;;13.40;99.90;;;;;;10353208;28;20932;-71
2022/05/14 01:53:10;;;;;;;5.43;1.33;;;13.40;99.90;;;;;;10365053;28;20221;-70
2022/05/14 02:03:33;;;;;;;1.70;1.13;;;13.30;99.90;;;;;;10361247;28;20217;-70
2022/05/14 02:08:34;;;;;;;3.33;1.40;;;13.20;99.90;;;;;;10357723;28;20815;-70
2022/05/14 02:13:36;;;;;;;2.80;1.57;;;13.10;99.90;;;;;;10359038;28;20392;-69
2022/05/14 02:18:37;;;;;;;1.93;1.53;;;13.10;99.90;;;;;;10360957;28;20225;-70
2022/05/14 02:23:39;;;;;;;2.23;1.50;;;13.00;99.90;;;;;;10368957;28;20224;-69
2022/05/14 02:28:40;;;;;;;3.20;1.90;;;13.00;99.90;;;;;;10358809;28;20829;-70
2022/05/14 02:33:41;;;;;;;2.20;1.47;;;12.90;99.90;;;;;;10358085;28;20217;-70
2022/05/14 02:38:42;;;;;;;7.93;2.20;;;12.90;99.90;;;;;;10364094;28;20229;-70
2022/05/14 02:43:42;;;;;;;1.73;1.40;;;12.80;99.90;;;;;;10358325;28;20209;-70
2022/05/14 02:48:43;;;;;;;2.47;1.53;;;12.80;99.90;;;;;;10365549;28;20232;-70
2022/05/14 02:53:44;;;;;;;3.17;1.67;;;12.80;99.90;;;;;;10365144;28;20216;-69
2022/05/14 03:04:06;;;;;;;4.60;1.70;;;12.60;99.90;;;;;;10357521;28;20217;-69
2022/05/14 03:09:07;;;;;;;2.67;1.70;;;12.60;99.90;;;;;;10352707;28;20261;-70
2022/05/14 03:14:09;;;;;;;4.33;1.63;;;12.50;99.90;;;;;;10367850;28;20245;-70
2022/05/14 03:19:10;;;;;;;3.00;1.70;;;12.50;99.90;;;;;;10366924;28;20217;-71
2022/05/14 03:24:11;;;;;;;2.47;1.80;;;12.50;99.90;;;;;;10337793;28;21828;-71
2022/05/14 03:29:12;;;;;;;4.03;1.77;;;12.50;99.90;;;;;;10365670;28;20278;-70
2022/05/14 03:34:13;;;;;;;4.30;1.50;;;12.40;99.90;;;;;;10355956;28;20715;-70
2022/05/14 03:39:14;;;;;;;2.40;1.60;;;12.40;99.90;;;;;;10348343;28;20229;-69
2022/05/14 03:44:16;;;;;;;3.97;1.83;;;12.50;99.90;;;;;;10358661;28;20748;-70
2022/05/14 03:49:16;;;;;;;2.93;1.93;;;12.50;99.90;;;;;;10347579;28;20360;-71
2022/05/14 03:54:17;;;;;;;4.50;1.80;;;12.50;99.90;;;;;;10364271;28;20313;-70
2022/05/14 03:59:18;;;;;;;3.53;1.70;;;12.50;99.90;;;;;;10350140;28;20233;-70
2022/05/14 04:04:21;;;;;;;2.37;1.60;;;12.50;99.90;;;;;;10353086;28;20215;-70
2022/05/14 04:09:21;;;;;;;5.00;1.77;;;12.60;99.90;;;;;;10337438;28;20234;-71
2022/05/14 04:14:22;;;;;;;3.70;1.77;;;12.60;99.90;;;;;;10354266;28;20233;-71
2022/05/14 04:19:23;;;;;;;1.60;1.27;;;12.60;99.90;;;;;;10352151;28;20232;-70
2022/05/14 04:24:23;;;;;;;2.07;1.30;;;12.70;99.90;;;;;;10355989;28;20260;-69
2022/05/14 04:29:24;;;;;;;2.37;1.63;;;12.80;99.90;;;;;;10350125;28;20304;-70
2022/05/14 04:34:25;;;;;;;2.90;1.80;;;12.80;99.90;;;;;;10344404;28;20213;-70
2022/05/14 04:39:31;;;;;;;4.60;1.70;;;13.00;99.90;;;;;;10360848;28;20235;-70
2022/05/14 04:44:34;;;;;;;5.90;1.67;;;13.10;99.90;;;;;;10337133;28;20214;-71
2022/05/14 04:49:46;;;;;;;4.80;1.50;;;13.40;99.90;;;;;;10354133;28;20309;-71
2022/05/14 04:54:47;;;;;;;3.93;1.70;;;13.60;99.90;;;;;;10357244;28;20220;-71
2022/05/14 04:59:47;;;;;;;2.60;1.50;;;13.80;99.90;;;;;;10354127;28;20226;-70
2022/05/14 05:04:48;;;;;;;2.50;1.90;;;14.30;99.90;;;;;;10355449;28;20782;-71
2022/05/14 05:09:49;;;;;;;2.90;1.43;;;15.10;99.90;;;;;;10361998;28;20217;-71
2022/05/14 05:14:49;;;;;;;2.50;1.50;;;15.80;99.90;;;;;;10363413;28;20215;-71
2022/05/14 05:19:50;;;;;;;4.60;1.77;;;16.80;99.90;;;;;;10339245;28;20221;-71
2022/05/14 05:24:50;;;;;;;3.77;1.60;;;17.00;99.90;;;;;;10336509;28;20230;-71
2022/05/14 05:29:51;;;;;;;5.57;1.80;;;16.80;99.90;;;;;;10352715;28;20711;-71
2022/05/14 05:34:52;;;;;;;4.00;1.90;;;16.60;99.90;;;;;;10353673;28;20221;-70
2022/05/14 05:39:52;;;;;;;4.97;1.63;;;16.40;99.90;;;;;;10366243;28;20710;-71
2022/05/14 05:44:53;;;;;;;7.10;2.40;;;17.40;99.90;;;;;;10362732;28;20214;-71
2022/05/14 05:49:53;;;;;;;9.00;2.40;;;19.80;92.60;;;;;;10364372;28;20648;-70
2022/05/14 06:00:20;;;;;;;4.40;2.10;;;25.20;62.70;;;;;;10352920;28;20870;-71
2022/05/14 06:05:22;;;;;;;4.57;2.20;;;27.50;53.50;;;;;;10365016;28;20238;-70
2022/05/14 06:10:23;;;;;;;2.93;2.30;;;29.20;48.20;;;;;;10356164;28;20205;-71
2022/05/14 06:15:24;;;;;;;3.87;2.10;;;30.30;43.90;;;;;;10361255;28;20296;-70
2022/05/14 06:20:24;;;;;;;4.03;2.30;;;31.10;41.50;;;;;;10364401;28;20283;-71
2022/05/14 06:25:25;;;;;;;5.80;2.67;;;31.90;39.60;;;;;;10351302;28;20287;-71
2022/05/14 06:30:26;;;;;;;3.40;2.17;;;32.30;38.60;;;;;;10337980;28;20221;-71
2022/05/14 06:35:30;;;;;;;9.40;2.57;;;33.10;37.20;;;;;;10358049;28;20226;-71
2022/05/14 06:40:31;;;;;;;3.47;2.50;;;33.80;35.50;;;;;;10338920;28;20233;-70
2022/05/14 06:45:31;;;;;;;4.70;2.33;;;34.00;35.00;;;;;;10363268;28;20254;-72
2022/05/14 06:50:39;;;;;;;5.17;2.20;;;34.40;34.60;;;;;;10359429;28;20274;-71
2022/05/14 06:55:43;;;;;;;6.17;2.37;;;35.10;33.70;;;;;;10359098;28;20218;-71
2022/05/14 07:00:44;;;;;;;4.93;1.80;;;35.50;33.20;;;;;;10366872;28;20225;-71
2022/05/14 07:11:04;;;;;;;6.03;2.03;;;35.30;32.80;;;;;;10347653;28;20257;-71
2022/05/14 07:16:05;;;;;;;6.70;1.97;;;36.40;32.00;;;;;;10338007;28;20256;-71
2022/05/14 07:21:05;;;;;;;4.93;2.30;;;36.90;31.30;;;;;;10341581;28;20312;-71
2022/05/14 07:26:08;;;;;;;6.90;2.03;;;37.40;30.00;;;;;;10355153;28;20372;-72
2022/05/14 07:31:09;;;;;;;7.00;2.20;;;36.90;30.00;;;;;;10355797;28;20241;-72
2022/05/14 07:36:17;;;;;;;6.50;2.20;;;37.30;29.50;;;;;;10337779;28;20217;-72
2022/05/14 07:41:17;;;;;;;3.07;1.80;;;38.00;28.60;;;;;;10350224;28;20237;-71
2022/05/14 07:46:24;;;;;;;7.77;2.50;;;38.20;28.30;;;;;;10361044;28;20243;-73
2022/05/14 07:51:28;;;;;;;5.93;1.97;;;37.60;27.60;;;;;;10365472;28;20298;-71
2022/05/14 07:56:29;;;;;;;5.93;2.53;;;37.50;28.50;;;;;;10354410;28;20216;-72
2022/05/14 08:01:31;;;;;;;5.83;1.90;;;37.90;27.10;;;;;;10353204;28;20240;-72
2022/05/14 08:06:32;;;;;;;8.47;2.20;;;38.60;27.10;;;;;;10357129;28;20674;-72
2022/05/14 08:11:33;;;;;;;7.73;2.30;;;38.90;26.50;;;;;;10353112;28;20315;-72
2022/05/14 08:16:33;;;;;;;5.87;2.30;;;39.20;26.40;;;;;;10347246;28;20217;-72
2022/05/14 08:26:53;;;;;;;8.40;1.83;;;40.20;25.50;;;;;;10354834;28;20221;-72
2022/05/14 08:31:57;;;;;;;4.67;1.97;;;41.20;24.60;;;;;;10355636;28;20364;-72
2022/05/14 08:36:58;;;;;;;12.00;2.10;;;40.80;25.00;;;;;;10363607;28;20733;-71
2022/05/14 08:42:00;;;;;;;6.53;2.10;;;41.10;24.50;;;;;;10337048;28;20324;-72
2022/05/14 08:47:04;;;;;;;5.27;2.20;;;40.90;24.80;;;;;;10358526;28;20733;-73
2022/05/14 08:52:10;;;;;;;4.37;2.20;;;40.90;25.20;;;;;;10355760;28;20266;-71
2022/05/14 08:57:58;;;;;;;7.30;2.20;;;41.00;25.10;;;;;;10342864;28;20232;-73
2022/05/14 09:02:59;;;;;;;5.95;2.40;;;41.20;25.10;;;;;;10296383;28;20222;-73
2022/05/14 09:08:01;;;;;;;7.47;2.20;;;42.30;24.50;;;;;;10370017;28;20311;-73
2022/05/14 09:13:20;;;;;;;6.90;2.55;;;42.40;24.70;;;;;;10365944;28;20225;-72
2022/05/14 09:18:33;;;;;;;5.97;2.13;;;41.80;25.00;;;;;;10363216;28;20272;-72
2022/05/14 09:23:43;;;;;;;4.78;1.98;;;41.50;24.80;;;;;;10361884;28;20236;-71
2022/05/14 09:28:48;;;;;;;3.80;2.35;;;42.50;24.30;;;;;;10365292;28;20256;-71
2022/05/14 09:33:59;;;;;;;6.78;2.30;;;42.80;24.00;;;;;;10363714;28;20213;-71
2022/05/14 09:39:02;;;;;;;4.80;2.05;;;42.30;23.70;;;;;;10368142;28;20311;-72
2022/05/14 09:44:03;;;;;;;8.00;2.30;;;42.40;24.00;;;;;;10363710;28;20209;-72
2022/05/14 09:49:07;;;;;;;5.70;2.17;;;43.50;23.90;;;;;;10365303;28;20229;-72
2022/05/14 09:54:19;;;;;;;4.38;1.90;;;42.80;23.70;;;;;;10358465;28;20308;-71
2022/05/14 09:59:52;;;;;;;6.78;1.90;;;42.80;23.90;;;;;;10359315;28;20263;-71
2022/05/14 10:05:19;;;;;;;7.13;2.08;;;43.60;23.70;;;;;;10329221;28;20763;-72
2022/05/14 10:10:49;;;;;;;10.82;2.50;;;43.90;23.50;;;;;;10359696;28;20221;-71
2022/05/14 10:16:03;;;;;;;4.70;2.30;;;45.00;22.80;;;;;;10362296;28;20276;-72
2022/05/14 10:21:12;;;;;;;5.45;2.22;;;45.10;22.70;;;;;;10354160;28;20246;-73
2022/05/14 10:31:47;;;;;;;6.95;2.30;;;45.70;21.70;;;;;;10352517;28;20671;-71
2022/05/14 10:36:57;;;;;;;5.55;1.75;;;45.40;21.90;;;;;;10361476;28;20251;-73
2022/05/14 10:42:07;;;;;;;6.47;2.10;;;45.30;22.10;;;;;;10359982;28;20824;-72
2022/05/14 10:47:10;;;;;;;6.90;2.08;;;45.00;22.00;;;;;;10359094;28;20654;-72
2022/05/14 10:52:15;;;;;;;6.30;2.00;;;43.70;22.40;;;;;;10353426;28;20210;-72
2022/05/14 10:57:19;;;;;;;6.63;2.05;;;44.10;22.90;;;;;;10359449;28;20692;-72
2022/05/14 11:02:40;;;;;;;6.97;1.90;;;43.00;23.20;;;;;;10356580;28;20264;-72
2022/05/14 11:07:44;;;;;;;8.35;1.75;;;43.50;22.40;;;;;;10351948;28;20263;-71
2022/05/14 11:12:46;;;;;;;5.47;1.98;;;42.80;22.70;;;;;;10336550;28;20311;-70
2022/05/14 11:17:47;;;;;;;4.50;1.80;;;42.50;23.80;;;;;;10359155;28;20221;-72
2022/05/14 11:22:51;;;;;;;3.97;1.67;;;42.40;23.70;;;;;;10360853;28;20799;-71
2022/05/14 11:28:08;;;;;;;6.77;1.83;;;42.60;23.00;;;;;;10358271;28;20231;-72
2022/05/14 11:33:26;;;;;;;5.70;2.23;;;41.90;23.10;;;;;;10353331;28;20217;-72
2022/05/14 11:38:26;;;;;;;5.93;1.90;;;41.20;23.70;;;;;;10356249;28;20550;-72
2022/05/14 11:43:29;;;;;;;4.20;2.17;;;37.80;26.70;;;;;;10359946;28;20635;-71
2022/05/14 11:48:35;;;;;;;5.30;1.73;;;34.20;30.00;;;;;;10359621;28;20227;-71
2022/05/14 11:53:49;;;;;;;6.07;1.70;;;31.30;34.60;;;;;;10354090;28;20260;-70
2022/05/14 11:59:07;;;;;;;5.07;2.03;;;29.70;37.20;;;;;;10358615;28;20890;-72
2022/05/14 12:04:20;;;;;;;4.33;1.77;;;28.90;38.00;;;;;;10336541;28;20575;-71
2022/05/14 12:09:26;;;;;;;5.27;1.70;;;28.40;38.70;;;;;;10352628;28;20226;-71
2022/05/14 12:14:32;;;;;;;4.90;1.70;;;27.70;39.60;;;;;;10365516;28;20221;-70
2022/05/14 12:19:39;;;;;;;4.37;1.90;;;27.30;40.20;;;;;;10363591;28;20984;-70
2022/05/14 12:24:40;;;;;;;8.80;1.93;;;27.20;41.80;;;;;;10366137;28;20220;-69
2022/05/14 12:29:52;;;;;;;7.10;1.80;;;27.00;40.40;;;;;;10361676;28;20218;-70
2022/05/14 12:34:57;;;;;;;5.47;1.70;;;26.90;41.10;;;;;;10345456;28;20711;-70
2022/05/14 12:40:00;;;;;;;2.93;1.20;;;26.90;40.30;;;;;;10358090;28;20231;-71
2022/05/14 12:45:02;;;;;;;6.57;1.77;;;26.70;41.60;;;;;;10360013;28;20221;-71
2022/05/14 12:50:03;;;;;;;6.63;2.00;;;26.70;42.30;;;;;;10361304;28;20217;-71
2022/05/14 12:55:06;;;;;;;2.30;1.33;;;26.60;42.70;;;;;;10361061;28;20213;-70
2022/05/14 13:00:08;;;;;;;4.93;2.03;;;26.30;42.80;;;;;;10363052;28;20228;-71
2022/05/14 13:05:24;;;;;;;8.83;2.20;;;26.40;42.90;;;;;;10355794;28;20181;-69
2022/05/14 13:10:29;;;;;;;6.43;1.70;;;26.50;41.00;;;;;;10357297;28;20268;-69
2022/05/14 13:15:36;;;;;;;12.90;3.33;;;26.50;41.60;;;;;;10352028;28;20218;-69
2022/05/14 13:20:37;;;;;;;6.87;1.50;;;26.20;41.00;;;;;;10352796;28;20315;-70
2022/05/14 13:25:38;;;;;;;4.67;1.80;;;26.30;42.40;;;;;;10349016;28;20223;-70
2022/05/14 13:30:44;;;;;;;7.20;1.57;;;26.20;43.00;;;;;;10351688;28;20221;-70
2022/05/14 13:41:11;;;;;;;7.50;1.97;;;26.00;40.60;;;;;;10340622;28;20245;-70
2022/05/14 13:46:20;;;;;;;3.40;1.20;;;25.90;40.00;;;;;;10332496;28;20720;-70
2022/05/14 13:51:34;;;;;;;3.93;1.30;;;25.80;40.20;;;;;;10352018;28;20225;-70
2022/05/14 13:56:36;;;;;;;3.17;1.20;;;25.90;41.60;;;;;;10362315;28;20226;-70
2022/05/14 14:01:46;;;;;;;4.37;1.60;;;25.90;42.00;;;;;;10349738;28;20290;-70
2022/05/14 14:06:52;;;;;;;6.03;1.43;;;25.90;41.30;;;;;;10357756;28;20239;-70
2022/05/14 14:11:54;;;;;;;5.90;1.57;;;25.90;41.00;;;;;;10358587;28;20232;-70
2022/05/14 14:16:55;;;;;;;9.90;3.83;;;25.90;41.90;;;;;;10353594;28;20234;-71
2022/05/14 14:21:59;;;;;;;4.43;2.67;;;25.90;41.70;;;;;;10343853;28;20242;-70
2022/05/14 14:27:00;;;;;;;3.07;1.33;;;25.90;41.70;;;;;;10360438;28;20261;-70
2022/05/14 14:32:01;;;;;;;7.27;1.40;;;25.90;41.90;;;;;;10355155;28;20623;-70
2022/05/14 14:37:02;;;;;;;6.83;1.70;;;25.90;41.20;;;;;;10354852;28;20325;-70
2022/05/14 14:42:02;;;;;;;4.47;1.33;;;25.90;41.10;;;;;;10358758;28;20232;-71
2022/05/14 14:47:04;;;;;;;3.57;1.67;;;26.00;41.10;;;;;;10363401;28;20585;-70
2022/05/14 14:52:05;;;;;;;4.23;1.50;;;26.00;39.80;;;;;;10346599;28;20268;-71
2022/05/14 14:57:06;;;;;;;3.07;1.60;;;26.00;40.40;;;;;;10353264;28;20227;-70
2022/05/14 15:02:13;;;;;;;4.57;1.50;;;26.00;39.80;;;;;;10353303;28;20263;-70
2022/05/14 15:07:14;;;;;;;7.53;1.50;;;26.00;39.50;;;;;;10351959;28;20224;-70
2022/05/14 15:12:15;;;;;;;6.13;1.67;;;26.00;38.80;;;;;;10357129;28;20570;-71
2022/05/14 15:17:16;;;;;;;3.63;1.50;;;25.90;39.00;;;;;;10352463;28;20221;-71
2022/05/14 15:22:16;;;;;;;4.27;1.50;;;25.90;39.10;;;;;;10353353;28;20306;-71
2022/05/14 15:27:17;;;;;;;4.30;1.40;;;25.90;39.90;;;;;;10353298;28;20233;-71
2022/05/14 15:32:20;;;;;;;4.73;1.70;;;26.00;40.10;;;;;;10361970;28;20217;-71
2022/05/14 15:37:21;;;;;;;6.30;1.60;;;26.00;41.50;;;;;;10351933;28;20221;-70
2022/05/14 15:42:27;;;;;;;4.67;1.47;;;25.90;41.40;;;;;;10351000;28;20682;-70
2022/05/14 15:47:31;;;;;;;4.80;1.50;;;25.90;41.70;;;;;;10355561;28;20231;-70
2022/05/14 15:52:33;;;;;;;3.70;1.37;;;25.90;40.60;;;;;;10351186;28;20726;-71
2022/05/14 15:57:33;;;;;;;8.00;5.10;;;25.80;41.10;;;;;;10365278;28;20217;-69
2022/05/14 16:02:34;;;;;;;5.37;1.70;;;25.70;42.40;;;;;;10366841;28;20298;-71
2022/05/14 16:07:35;;;;;;;6.40;2.10;;;25.60;42.50;;;;;;10354802;28;20233;-70
2022/05/14 16:17:55;;;;;;;4.43;1.77;;;25.40;42.30;;;;;;10351943;28;20609;-71
2022/05/14 16:22:55;;;;;;;3.90;1.30;;;25.30;43.00;;;;;;10357734;28;20213;-70
2022/05/14 16:27:56;;;;;;;3.23;1.30;;;25.10;42.40;;;;;;10346013;28;20233;-70
2022/05/14 16:32:57;;;;;;;4.77;1.20;;;24.90;43.20;;;;;;10358005;28;20220;-72
2022/05/14 16:37:57;;;;;;;3.10;1.70;;;25.00;43.90;;;;;;10359219;28;20221;-71
2022/05/14 16:42:58;;;;;;;3.07;1.60;;;25.00;44.00;;;;;;10361785;28;20209;-70
2022/05/14 16:47:59;;;;;;;8.20;1.60;;;24.90;43.50;;;;;;10353731;28;20287;-71
2022/05/14 16:53:00;;;;;;;5.07;1.40;;;24.80;44.70;;;;;;10340397;28;20279;-70
2022/05/14 16:58:01;;;;;;;3.17;1.70;;;24.70;44.30;;;;;;10357820;28;20664;-71
2022/05/14 17:03:03;;;;;;;3.43;1.70;;;24.60;45.10;;;;;;10347729;28;20217;-71
2022/05/14 17:08:05;;;;;;;3.67;1.53;;;24.60;44.90;;;;;;10354100;28;20314;-70
2022/05/14 17:13:07;;;;;;;2.97;1.57;;;24.50;45.10;;;;;;10345434;28;20272;-71
2022/05/14 17:18:10;;;;;;;9.70;1.57;;;24.40;45.40;;;;;;10342347;28;20701;-71
2022/05/14 17:23:11;;;;;;;5.17;1.60;;;24.30;46.00;;;;;;10361749;28;20241;-70
2022/05/14 17:28:12;;;;;;;3.93;1.80;;;24.10;45.10;;;;;;10357739;28;20313;-70
2022/05/14 17:33:15;;;;;;;3.77;1.33;;;24.00;46.50;;;;;;10363571;28;20240;-70
2022/05/14 17:43:35;;;;;;;5.33;1.50;;;23.90;47.30;;;;;;10357969;28;20221;-71
2022/05/14 17:48:36;;;;;;;6.17;1.70;;;23.80;47.40;;;;;;10353539;28;20890;-70
2022/05/14 17:53:37;;;;;;;5.53;1.90;;;23.70;47.60;;;;;;10367241;28;20310;-71
2022/05/14 17:58:38;;;;;;;4.63;1.60;;;23.60;47.80;;;;;;10359806;28;20598;-71
2022/05/14 18:03:38;;;;;;;4.40;1.83;;;23.50;48.20;;;;;;10359129;28;20214;-71
2022/05/14 18:08:40;;;;;;;3.17;1.60;;;23.40;49.00;;;;;;10360882;28;20709;-71
2022/05/14 18:13:42;;;;;;;3.80;2.40;;;23.00;49.60;;;;;;10345407;28;20634;-72
2022/05/14 18:18:42;;;;;;;4.67;2.30;;;22.80;50.60;;;;;;10355791;28;20225;-70
2022/05/14 18:23:43;;;;;;;7.80;2.17;;;22.60;51.60;;;;;;10362434;28;20217;-72
2022/05/14 18:28:46;;;;;;;6.10;2.10;;;22.40;53.30;;;;;;10359945;28;20789;-71
2022/05/14 18:33:54;;;;;;;21.87;12.53;;;22.20;53.50;;;;;;10354259;28;20217;-72
2022/05/14 18:38:57;;;;;;;14.07;6.73;;;22.10;54.10;;;;;;10359505;28;20222;-72
2022/05/14 18:43:59;;;;;;;7.13;2.70;;;22.00;52.50;;;;;;10334571;28;20225;-70
2022/05/14 18:49:00;;;;;;;4.43;2.60;;;21.90;50.80;;;;;;10357189;28;20214;-70
2022/05/14 18:54:01;;;;;;;13.23;3.97;;;21.80;49.50;;;;;;10362804;28;20221;-71
2022/05/14 18:59:01;;;;;;;4.83;2.37;;;21.70;49.40;;;;;;10350966;28;20225;-70
2022/05/14 19:09:23;;;;;;;24.17;21.50;;;21.30;49.80;;;;;;10363483;28;20225;-70
2022/05/14 19:14:24;;;;;;;24.67;21.80;;;21.20;50.40;;;;;;10356435;28;20692;-71
2022/05/14 19:19:24;;;;;;;13.77;9.20;;;20.90;51.50;;;;;;10347168;28;20237;-71
2022/05/14 19:24:25;;;;;;;8.67;4.93;;;20.80;51.80;;;;;;10362477;28;20235;-71
2022/05/14 19:29:27;;;;;;;5.77;2.57;;;20.60;53.30;;;;;;10355812;28;20229;-71
2022/05/14 19:34:27;;;;;;;3.90;2.00;;;20.40;53.30;;;;;;10345738;28;20783;-71
2022/05/14 19:39:33;;;;;;;6.67;2.60;;;20.20;53.20;;;;;;10355761;28;20225;-71
2022/05/14 19:44:45;;;;;;;4.37;2.30;;;20.10;54.30;;;;;;10364127;28;20221;-71
2022/05/14 19:49:47;;;;;;;3.47;1.70;;;19.90;55.00;;;;;;10352901;28;20225;-71
2022/05/14 19:54:47;;;;;;;7.57;2.33;;;19.80;54.60;;;;;;10366675;28;20275;-71
2022/05/14 19:59:48;;;;;;;6.83;2.37;;;19.70;54.20;;;;;;10342595;28;20265;-71
2022/05/14 20:04:49;;;;;;;5.33;1.87;;;19.70;54.90;;;;;;10360356;28;20217;-71
2022/05/14 20:09:49;;;;;;;5.10;1.63;;;19.60;54.70;;;;;;10360788;28;20708;-71
2022/05/14 20:14:50;;;;;;;5.63;2.40;;;19.60;53.70;;;;;;10350084;28;20217;-71
2022/05/14 20:25:16;;;;;;;6.90;2.17;;;19.60;54.30;;;;;;10348520;28;20297;-71
2022/05/14 20:30:17;;;;;;;5.10;2.40;;;19.50;54.40;;;;;;10365065;28;20177;-73
2022/05/14 20:35:18;;;;;;;2.20;2.00;;;19.40;54.40;;;;;;10370497;28;20256;-72
2022/05/14 20:40:18;;;;;;;7.33;2.57;;;19.30;54.70;;;;;;10349103;28;20205;-72
2022/05/14 20:45:19;;;;;;;4.47;2.90;;;19.20;55.10;;;;;;10353728;28;20268;-72
2022/05/14 20:50:20;;;;;;;4.43;2.30;;;19.00;55.70;;;;;;10358058;28;20204;-72
2022/05/14 20:55:22;;;;;;;5.07;2.43;;;18.90;56.50;;;;;;10364718;28;20181;-72
2022/05/14 21:00:23;;;;;;;4.80;2.20;;;18.70;57.00;;;;;;10372008;28;20581;-72
2022/05/14 21:05:24;;;;;;;5.47;2.63;;;18.60;59.40;;;;;;10372567;28;21201;-73
2022/05/14 21:10:26;;;;;;;12.57;2.60;;;18.40;61.00;;;;;;10367484;28;20367;-72
2022/05/14 21:15:28;;;;;;;9.23;3.00;;;18.30;62.00;;;;;;10370714;28;20223;-72
2022/05/14 21:20:29;;;;;;;5.67;2.47;;;18.20;63.00;;;;;;10365378;28;20224;-72
2022/05/14 21:25:31;;;;;;;6.30;2.90;;;18.00;63.80;;;;;;10370493;28;20222;-72
2022/05/14 21:30:32;;;;;;;6.30;3.20;;;17.90;64.90;;;;;;10365864;28;20221;-72
2022/05/14 21:40:52;;;;;;;7.27;3.20;;;17.80;63.80;;;;;;10363975;28;20807;-73
2022/05/14 21:45:53;;;;;;;9.60;3.30;;;17.90;60.80;;;;;;10367933;28;20321;-72
2022/05/14 21:50:54;;;;;;;6.40;3.60;;;18.10;60.50;;;;;;10339301;28;20788;-72
2022/05/14 21:55:54;;;;;;;9.60;3.77;;;18.10;61.30;;;;;;10346931;28;20217;-72
2022/05/14 22:00:55;;;;;;;6.77;3.40;;;17.90;62.40;;;;;;10369469;28;20229;-72
2022/05/14 22:05:55;;;;;;;6.40;3.97;;;17.80;63.20;;;;;;10350372;28;20797;-73
2022/05/14 22:10:56;;;;;;;7.83;2.90;;;17.60;63.60;;;;;;10344665;28;20279;-72
2022/05/14 22:15:57;;;;;;;4.47;2.60;;;17.70;62.70;;;;;;10363709;28;20236;-74
2022/05/14 22:20:57;;;;;;;6.53;2.97;;;17.50;62.30;;;;;;10366303;28;20221;-72
2022/05/14 22:26:00;;;;;;;4.93;2.90;;;17.40;62.10;;;;;;10366776;28;20220;-72
2022/05/14 22:31:01;;;;;;;5.87;2.60;;;17.30;63.60;;;;;;10360079;28;20595;-72
2022/05/14 22:36:01;;;;;;;4.57;2.80;;;17.20;65.30;;;;;;10349529;28;20221;-72
2022/05/14 22:41:02;;;;;;;5.37;2.70;;;17.10;66.60;;;;;;10365870;28;20700;-72
2022/05/14 22:46:04;;;;;;;6.40;2.57;;;17.00;63.90;;;;;;10358484;28;20731;-72
2022/05/14 22:51:07;;;;;;;8.33;3.40;;;17.10;63.60;;;;;;10341729;28;20240;-71
2022/05/14 22:56:08;;;;;;;5.23;2.80;;;17.10;64.10;;;;;;10362166;28;20616;-74
2022/05/14 23:01:10;;;;;;;6.43;2.73;;;17.00;65.00;;;;;;10349182;28;20228;-73
2022/05/14 23:06:12;;;;;;;7.33;2.63;;;16.90;65.50;;;;;;10358472;28;20228;-73
2022/05/14 23:11:13;;;;;;;6.87;3.00;;;16.80;66.00;;;;;;10356119;28;20272;-74
2022/05/14 23:16:14;;;;;;;5.30;3.17;;;16.70;66.80;;;;;;10357935;28;20993;-74
2022/05/14 23:21:15;;;;;;;9.20;3.50;;;16.60;68.10;;;;;;10362087;28;20755;-73
2022/05/14 23:26:15;;;;;;;5.73;2.90;;;16.50;68.80;;;;;;10362294;28;20221;-74
2022/05/14 23:31:16;;;;;;;7.40;3.40;;;16.40;69.90;;;;;;10357203;28;20221;-73
2022/05/14 23:36:25;;;;;;;5.53;3.40;;;16.30;70.70;;;;;;10359256;28;20291;-72
2022/05/14 23:41:26;;;;;;;8.60;2.97;;;16.30;71.60;;;;;;10352124;28;20239;-74
2022/05/14 23:46:26;;;;;;;6.43;3.00;;;16.30;72.10;;;;;;10355610;28;20224;-74
2022/05/14 23:51:27;;;;;;;8.10;3.03;;;16.30;72.40;;;;;;10335186;28;20217;-75
2022/05/14 23:56:28;;;;;;;7.20;3.20;;;16.20;72.90;;;;;;10358625;28;20218;-72
